Mataguay (212) Station Data

Red Flag Warning: No
Fire Weather Zone: 258
SDGE Region: Ramona
Lat/Lon: 33.223/-116.699

Observations

Time Wind Speed/Gust Temp(F) RH Fuel Moist Fuel Temp(F) Dewpt(F) Tmax(F) Tmin(F) Accum Precip 10-min Precip SL Press(mb)
5/24 8:20am 26 4 G 6 60° 60% - - 46° 63° 50.8° - - 982.0
5/24 8:10am 4 2 G 4 58° 66% - - 47° 63° 50.8° - - 984.0
5/24 8:00am 235 2 G 4 57° 69% - - 47° 63° 50.8° - - 985.0
5/24 7:50am 293 1 G 2 56° 71% - - 47° 63° 50.8° - - 986.0
5/24 7:40am 252 3 G 5 56° 71% - - 47° 63° 50.8° - - 985.0
5/24 7:30am 259 2 G 5 56° 70% - - 46° 63° 50.8° - - 985.0
5/24 7:20am 306 1 G 2 56° 70% - - 46° 63° 50.8° - - 985.0
5/24 7:10am 270 1 G 2 55° 70% - - 46° 63° 50.8° - - 985.0
5/24 7:00am 309 1 G 2 54° 71% - - 45° 63° 50.8° - - 985.0
5/24 6:50am 302 1 G 3 54° 70% - - 45° 63° 50.8° - - 985.0
5/24 6:40am 56 1 G 1 53° 71% - - 44° 63° 50.8° - - 985.0
5/24 6:30am 150 1 G 3 52° 71% - - 43° 63° 50.8° - - 984.0
5/24 6:20am 199 3 G 5 52° 69% - - 43° 63° 50.8° - - 984.0
5/24 6:10am 188 2 G 3 53° 67% - - 43° 63° 50.8° - - 983.0
5/24 6:00am 138 3 G 5 52° 68% - - 42° 63° 50.8° - - 983.0
5/24 5:50am 62 3 G 4 51° 69% - - 42° 63° 50.8° - - 983.0
5/24 5:40am 54 2 G 3 53° 67% - - 43° 63° 50.8° - - 983.0
5/24 5:30am 76 4 G 5 54° 70% - - 45° 63° 50.8° - - 984.0
5/24 5:20am 64 2 G 3 53° 73% - - 45° 63° 50.8° - - 985.0
5/24 5:10am 94 1 G 2 52° 75% - - 44° 63° 50.8° - - 986.0
5/24 5:00am 149 1 G 3 51° 75% - - 44° 63° 50.8° - - 986.0
5/24 4:50am 170 2 G 5 51° 73% - - 43° 63° 50.8° - - 985.0
5/24 4:40am 219 1 G 3 53° 70% - - 43° 63° 51.5° - - 984.0
5/24 4:30am 222 2 G 3 54° 72% - - 45° 63° 52.7° - - 985.0
5/24 4:20am 184 2 G 3 53° 71% - - 44° 63° 52.7° - - 984.0
5/24 4:10am 200 1 G 2 53° 68% - - 43° 63° 52.9° - - 983.0
5/24 4:00am 218 1 G 2 54° 66% - - 43° 63° 53.4° - - 983.0
5/24 3:50am 276 1 G 2 55° 65% - - 43° 63° 53.9° - - 982.0
5/24 3:40am 205 1 G 1 55° 64% - - 43° 63° 54.7° - - 982.0
5/24 3:30am 191 1 G 2 55° 63% - - 43° 63° 54.8° - - 982.0
5/24 3:20am 199 0 G 1 55° 62% - - 43° 63° 54.8° - - 981.0
5/24 3:10am 75 2 G 2 56° 61% - - 42° 63° 55.1° - - 981.0
5/24 3:00am 86 1 G 3 58° 59% - - 43° 63° 55.7° - - 981.0
5/24 2:50am 70 4 G 5 56° 63% - - 44° 63° 55.7° - - 982.0
5/24 2:40am 58 3 G 4 56° 64% - - 44° 63° 55.7° - - 982.0
5/24 2:30am 88 1 G 2 56° 64% - - 44° 63° 55.7° - - 982.0
5/24 2:20am 99 1 G 2 56° 63% - - 44° 63° 55.7° - - 982.0
5/24 2:10am 185 1 G 3 57° 62% - - 44° 63° 56.3° - - 982.0
5/24 2:00am 209 2 G 3 57° 63% - - 44° 63° 56.3° - - 982.0
5/24 1:50am 128 1 G 1 57° 62% - - 44° 63° 56.8° - - 982.0
5/24 1:40am 65 1 G 2 57° 61% - - 44° 63° 56.8° - - 981.0
5/24 1:30am 208 2 G 3 58° 59% - - 44° 63° 57.9° - - 981.0
5/24 1:20am 210 2 G 4 58° 61% - - 45° 63° 57.9° - - 982.0
5/24 1:10am 179 1 G 2 60° 58% - - 45° 63° 58° - - 981.0
5/24 1:00am 83 3 G 4 60° 58% - - 45° 63° 59.4° - - 981.0
5/24 12:50am 67 1 G 4 60° 57% - - 45° 63° 59.6° - - 980.0
5/24 12:40am 182 1 G 2 60° 57% - - 45° 63° 59.7° - - 980.0
5/24 12:30am 42 1 G 3 61° 52% - - 44° 63° 60.3° - - 979.0
5/24 12:20am 65 2 G 3 62° 50% - - 43° 63° 61.2° - - 978.0
5/24 12:10am 46 1 G 3 63° 49% - - 43° 63° 62° - - 978.0
5/24 12:00am 71 2 G 2 63° 48% - - 44° 92.6° 52.8° - - 977.0
5/23 11:50pm 88 2 G 2 62° 49% - - 43° 92.6° 52.8° - - 978.0
5/23 11:40pm 107 1 G 2 63° 49% - - 43° 92.6° 52.8° - - 978.0
5/23 11:30pm 180 3 G 4 63° 48% - - 43° 92.6° 52.8° - - 977.0
5/23 11:20pm 214 2 G 4 63° 48% - - 43° 92.6° 52.8° - - 978.0
5/23 11:10pm 197 2 G 3 62° 51% - - 44° 92.6° 52.8° - - 978.0
5/23 11:00pm 103 2 G 3 64° 48% - - 44° 92.6° 52.8° - - 978.0
5/23 10:50pm 89 3 G 4 65° 46% - - 44° 92.6° 52.8° - - 977.0
5/23 10:40pm 73 2 G 4 66° 45% - - 44° 92.6° 52.8° - - 977.0
5/23 10:30pm 99 2 G 4 67° 43% - - 44° 92.6° 52.8° - - 976.0
5/23 10:20pm 104 2 G 4 67° 44% - - 44° 92.6° 52.8° - - 977.0
5/23 10:10pm 80 2 G 3 65° 46% - - 44° 92.6° 52.8° - - 977.0
5/23 10:00pm 77 2 G 3 66° 46% - - 45° 92.6° 52.8° - - 977.0
5/23 9:50pm 228 2 G 4 68° 44% - - 45° 92.6° 52.8° - - 977.0
5/23 9:40pm 154 2 G 3 70° 40% - - 44° 92.6° 52.8° - - 976.0
5/23 9:30pm 72 5 G 7 68° 43% - - 45° 92.6° 52.8° - - 976.0
5/23 9:20pm 54 3 G 6 70° 41% - - 45° 92.6° 52.8° - - 976.0
5/23 9:10pm 104 5 G 7 70° 41% - - 46° 92.6° 52.8° - - 976.0
5/23 9:00pm 56 4 G 7 70° 42% - - 46° 92.6° 52.8° - - 977.0
5/23 8:50pm 38 2 G 4 72° 42% - - 48° 92.6° 52.8° - - 977.0
5/23 8:40pm 137 4 G 7 74° 40% - - 48° 92.6° 52.8° - - 977.0
5/23 8:30pm 178 9 G 13 74° 41% - - 49° 92.6° 52.8° - - 978.0
5/23 8:20pm 182 9 G 13 75° 42% - - 50° 92.6° 52.8° - - 978.0
5/23 8:10pm 202 7 G 11 75° 43% - - 51° 92.6° 52.8° - - 978.0
5/23 8:00pm 225 7 G 10 76° 39% - - 49° 92.6° 52.8° - - 977.0
5/23 7:50pm 216 7 G 10 76° 40% - - 50° 92.6° 52.8° - - 977.0
5/23 7:40pm 240 7 G 9 77° 36% - - 48° 92.6° 52.8° - - 976.0
5/23 7:30pm 240 5 G 7 78° 33% - - 46° 92.6° 52.8° - - 975.0
5/23 7:20pm 235 6 G 8 78° 31% - - 45° 92.6° 52.8° - - 975.0
5/23 7:10pm 264 6 G 8 79° 31% - - 46° 92.6° 52.8° - - 976.0
5/23 7:00pm 277 6 G 8 80° 31% - - 47° 92.6° 52.8° - - 976.0
5/23 6:50pm 248 7 G 9 81° 29% - - 46° 92.6° 52.8° - - 975.0
5/23 6:40pm 246 8 G 10 82° 28% - - 46° 92.6° 52.8° - - 975.0
5/23 6:30pm 263 6 G 8 82° 28% - - 45° 92.6° 52.8° - - 975.0
5/23 6:20pm 265 6 G 8 82° 28% - - 46° 92.6° 52.8° - - 975.0
5/23 6:10pm 262 7 G 10 82° 28% - - 46° 92.6° 52.8° - - 975.0
5/23 6:00pm 252 9 G 12 83° 29% - - 47° 92.6° 52.8° - - 975.0
5/23 5:50pm 240 10 G 13 83° 28% - - 46° 92.6° 52.8° - - 975.0
5/23 5:40pm 243 11 G 15 83° 28% - - 46° 92.6° 52.8° - - 975.0
5/23 5:30pm 206 11 G 16 83° 29% - - 47° 92.6° 52.8° - - 975.0
5/23 5:20pm 223 11 G 17 83° 29% - - 47° 92.6° 52.8° - - 976.0
5/23 5:10pm 182 11 G 16 83° 33% - - 51° 92.6° 52.8° - - 977.0
5/23 5:00pm 176 14 G 20 83° 33% - - 51° 92.6° 52.8° - - 977.0
5/23 4:50pm 183 14 G 21 83° 35% - - 52° 92.6° 52.8° - - 978.0
5/23 4:40pm 173 17 G 22 82° 37% - - 53° 92.6° 52.8° - - 978.0
5/23 4:30pm 182 15 G 24 82° 38% - - 54° 92.6° 52.8° - - 979.0
5/23 4:20pm 176 18 G 24 82° 39% - - 54° 92.6° 52.8° - - 979.0
5/23 4:10pm 179 18 G 25 82° 38% - - 54° 92.6° 52.8° - - 979.0
5/23 4:00pm 187 16 G 25 83° 37% - - 54° 92.6° 52.8° - - 979.0
5/23 3:50pm 174 18 G 27 82° 39% - - 54° 92.6° 52.8° - - 979.0
5/23 3:40pm 172 19 G 24 82° 39% - - 54° 92.6° 52.8° - - 979.0
5/23 3:30pm 201 17 G 25 84° 35% - - 54° 92.6° 52.8° - - 978.0
5/23 3:20pm 220 17 G 24 85° 33% - - 53° 92.6° 52.8° - - 978.0
5/23 3:10pm 228 20 G 24 84° 32% - - 51° 92.6° 52.8° - - 977.0
5/23 3:00pm 233 21 G 24 85° 31% - - 51° 92.6° 52.8° - - 977.0
5/23 2:50pm 242 19 G 23 86° 27% - - 49° 92.6° 52.8° - - 976.0
5/23 2:40pm 239 19 G 22 88° 21% - - 43° 92.6° 52.8° - - 974.0
5/23 2:30pm 235 17 G 21 89° 15% - - 37° 92.6° 52.8° - - 972.0
5/23 2:20pm 240 16 G 21 90° 15% - - 36° 92.6° 52.8° - - 972.0
5/23 2:10pm 240 15 G 18 90° 17% - - 39° 92.6° 52.8° - - 973.0
5/23 2:00pm 232 14 G 20 91° 17% - - 40° 92.6° 52.8° - - 973.0
5/23 1:50pm 215 12 G 21 91° 15% - - 38° 92.6° 52.8° - - 972.0
5/23 1:40pm 233 15 G 21 90° 18% - - 41° 92.6° 52.8° - - 973.0
5/23 1:30pm 241 15 G 21 90° 17% - - 40° 92.6° 52.8° - - 973.0
5/23 1:20pm 221 13 G 19 91° 16% - - 39° 92.6° 52.8° - - 973.0
5/23 1:10pm 226 14 G 20 91° 15% - - 36° 92.6° 52.8° - - 972.0
5/23 1:00pm 226 11 G 17 91° 13% - - 34° 92.6° 52.8° - - 971.0
5/23 12:50pm 224 12 G 18 91° 14% - - 34° 92.6° 52.8° - - 971.0
5/23 12:40pm 223 16 G 21 90° 15% - - 36° 92.6° 52.8° - - 972.0
5/23 12:30pm 231 16 G 22 90° 15% - - 35° 92.6° 52.8° - - 972.0
5/23 12:20pm 224 15 G 22 91° 13% - - 33° 92.6° 52.8° - - 971.0
5/23 12:10pm 180 7 G 16 91° 12% - - 31° 92.6° 52.8° - - 971.0
5/23 12:00pm 173 8 G 14 92° 12% - - 31° 92.6° 52.8° - - 971.0
5/23 11:50am 181 7 G 12 91° 11% - - 29° 91.8° 52.8° - - 971.0
5/23 11:40am 192 8 G 13 91° 13% - - 33° 91.4° 52.8° - - 971.0
5/23 11:30am 210 7 G 13 91° 13% - - 34° 91.2° 52.8° - - 971.0
5/23 11:20am 241 6 G 10 90° 12% - - 32° 90.8° 52.8° - - 971.0
5/23 11:10am 200 5 G 8 90° 13% - - 32° 90.3° 52.8° - - 971.0
5/23 11:00am 230 6 G 8 88° 16% - - 35° 88.6° 52.8° - - 971.0
5/23 10:50am 219 5 G 8 86° 21% - - 42° 87.7° 52.8° - - 973.0
5/23 10:40am 237 4 G 7 86° 22% - - 42° 86.8° 52.8° - - 973.0
5/23 10:30am 237 4 G 6 84° 23% - - 42° 84.6° 52.8° - - 973.0
5/23 10:20am 228 4 G 7 83° 26% - - 45° 83.6° 52.8° - - 974.0
5/23 10:10am 236 3 G 6 81° 27% - - 44° 81.8° 52.8° - - 973.0
5/23 10:00am 269 3 G 5 79° 27% - - 42° 80.1° 52.8° - - 973.0
5/23 9:50am 277 2 G 4 78° 29% - - 43° 78.8° 52.8° - - 973.0
5/23 9:40am 314 2 G 5 76° 32% - - 43° 77.6° 52.8° - - 974.0
5/23 9:30am 268 2 G 4 74° 33% - - 44° 75.5° 52.8° - - 974.0
5/23 9:20am 275 2 G 4 73° 34% - - 43° 73.8° 52.8° - - 974.0
5/23 9:10am 6 2 G 3 71° 38% - - 44° 72° 52.8° - - 975.0
5/23 9:00am 353 2 G 3 69° 43% - - 45° 69.9° 52.8° - - 977.0
5/23 8:50am 277 2 G 3 67° 47% - - 46° 68° 52.8° - - 978.0
5/23 8:40am 290 1 G 3 66° 51% - - 47° 66.5° 52.8° - - 979.0
5/23 8:30am 257 1 G 3 64° 54% - - 48° 65.1° 52.8° - - 980.0
5/23 8:20am 340 1 G 2 63° 57% - - 48° 64.8° 52.8° - - 981.0
5/23 8:10am 287 1 G 2 62° 60% - - 47° 64.8° 52.8° - - 982.0
5/23 8:00am 265 1 G 2 61° 60% - - 47° 64.8° 52.8° - - 982.0
5/23 7:50am 260 1 G 2 61° 61% - - 47° 64.8° 52.8° - - 982.0
5/23 7:40am 339 1 G 2 60° 64% - - 47° 64.8° 52.8° - - 983.0
5/23 7:30am 291 1 G 3 58° 68% - - 48° 64.8° 52.8° - - 985.0
5/23 7:20am 263 1 G 2 57° 68% - - 47° 64.8° 52.8° - - 985.0
5/23 7:10am 245 1 G 2 57° 68% - - 47° 64.8° 52.8° - - 985.0
5/23 7:00am 0 0 G 0 56° 71% - - 47° 64.8° 52.8° - - 985.0
5/23 6:50am 45 0 G 1 55° 72% - - 46° 64.8° 52.8° - - 985.0
5/23 6:40am 30 0 G 1 54° 72% - - 45° 64.8° 52.8° - - 985.0
5/23 6:30am 58 0 G 1 53° 73% - - 45° 64.8° 52.8° - - 985.0
5/23 6:20am 230 1 G 2 53° 72% - - 44° 64.8° 52.8° - - 985.0
5/23 6:10am 222 2 G 2 53° 73% - - 45° 64.8° 53° - - 985.0
5/23 6:00am 209 0 G 2 53° 73% - - 45° 64.8° 53° - - 985.0